createdAt,value
2022-09-04T00:00:22.551Z,3.50
2022-09-04T00:03:07.882Z,3.45
2022-09-04T00:05:39.196Z,4.80
2022-09-04T00:08:17.729Z,3.25
2022-09-04T00:10:51.202Z,4.53
2022-09-04T00:13:22.559Z,3.05
2022-09-04T00:15:58.288Z,3.30
2022-09-04T00:18:29.569Z,4.97
2022-09-04T00:21:00.544Z,3.70
2022-09-04T00:23:32.282Z,3.38
2022-09-04T00:26:05.533Z,4.18
2022-09-04T00:28:37.039Z,4.50
2022-09-04T00:31:17.440Z,3.80
2022-09-04T00:33:50.357Z,3.53
2022-09-04T00:36:19.998Z,4.63
2022-09-04T00:38:51.165Z,5.15
2022-09-04T00:41:31.105Z,5.05
2022-09-04T00:44:16.213Z,4.68
2022-09-04T00:46:54.692Z,5.65
2022-09-04T00:49:44.740Z,4.93
2022-09-04T00:52:19.716Z,5.25
2022-09-04T00:54:59.969Z,6.60
2022-09-04T00:57:59.290Z,7.43
2022-09-04T01:00:29.028Z,7.10
2022-09-04T01:03:08.350Z,6.72
2022-09-04T01:05:44.648Z,6.10
2022-09-04T01:08:20.515Z,5.68
2022-09-04T01:10:54.396Z,6.47
2022-09-04T01:13:27.471Z,5.80
2022-09-04T01:15:59.395Z,6.70
2022-09-04T01:18:35.675Z,6.68
2022-09-04T01:21:13.697Z,5.82
2022-09-04T01:24:06.508Z,6.43
2022-09-04T01:26:40.554Z,6.80
2022-09-04T01:29:18.319Z,6.10
2022-09-04T01:31:49.707Z,6.25
2022-09-04T01:34:31.431Z,7.32
2022-09-04T01:37:03.225Z,6.22
2022-09-04T01:39:32.911Z,7.40
2022-09-04T01:42:07.819Z,7.97
2022-09-04T01:44:38.229Z,7.38
2022-09-04T01:47:13.689Z,7.57
2022-09-04T01:49:45.170Z,8.70
2022-09-04T01:52:36.694Z,6.97
2022-09-04T01:55:15.969Z,7.25
2022-09-04T01:57:57.307Z,7.00
2022-09-04T02:00:26.789Z,8.02
2022-09-04T02:03:00.336Z,6.78
2022-09-04T02:05:33.470Z,7.47
2022-09-04T02:08:11.531Z,6.55
2022-09-04T02:10:45.009Z,8.77
2022-09-04T02:13:22.448Z,7.30
2022-09-04T02:15:58.572Z,6.80
2022-09-04T02:18:34.126Z,7.72
2022-09-04T02:21:07.251Z,7.68
2022-09-04T02:23:39.598Z,7.70
2022-09-04T02:26:12.926Z,7.95
2022-09-04T02:28:50.320Z,7.45
2022-09-04T02:31:24.268Z,7.30
2022-09-04T02:33:57.175Z,7.00
2022-09-04T02:36:29.216Z,7.40
2022-09-04T02:39:01.725Z,7.25
2022-09-04T02:41:34.199Z,8.10
2022-09-04T02:44:20.343Z,8.45
2022-09-04T02:46:56.554Z,9.10
2022-09-04T02:49:32.847Z,10.32
2022-09-04T02:52:07.167Z,8.65
2022-09-04T02:54:45.284Z,10.15
2022-09-04T02:57:21.713Z,9.85
2022-09-04T03:00:04.774Z,9.43
2022-09-04T03:02:36.379Z,9.85
2022-09-04T03:05:09.182Z,10.38
2022-09-04T03:07:39.172Z,11.73
2022-09-04T03:10:12.747Z,12.52
2022-09-04T03:12:45.058Z,13.90
2022-09-04T03:15:22.998Z,12.95
2022-09-04T03:17:58.845Z,14.57
2022-09-04T03:20:29.204Z,13.93
2022-09-04T03:23:01.617Z,14.82
2022-09-04T03:26:07.818Z,15.45
2022-09-04T03:28:42.151Z,14.40
2022-09-04T03:31:23.469Z,17.90
2022-09-04T03:33:54.660Z,14.88
2022-09-04T03:38:57.306Z,20.77
2022-09-04T03:41:30.457Z,19.88
2022-09-04T03:44:06.446Z,18.27
2022-09-04T03:46:44.404Z,19.02
2022-09-04T03:49:17.761Z,20.13
2022-09-04T03:51:53.735Z,20.58
2022-09-04T03:54:38.962Z,19.58
2022-09-04T03:57:14.723Z,19.38
2022-09-04T03:59:50.508Z,23.23
2022-09-04T04:02:26.465Z,22.10
2022-09-04T04:05:14.955Z,25.17
2022-09-04T04:07:48.060Z,21.17
2022-09-04T04:10:22.895Z,22.15
2022-09-04T04:13:08.534Z,23.08
2022-09-04T04:15:46.892Z,22.58
2022-09-04T04:18:37.874Z,23.15
2022-09-04T04:21:10.785Z,20.60
2022-09-04T04:23:58.689Z,22.88
2022-09-04T04:26:40.762Z,24.40
2022-09-04T04:29:26.757Z,24.33
2022-09-04T04:32:13.742Z,21.15
2022-09-04T04:34:51.276Z,19.73
2022-09-04T04:37:22.981Z,18.58
2022-09-04T04:39:54.570Z,21.33
2022-09-04T04:42:26.052Z,23.30
2022-09-04T04:45:17.632Z,23.17
2022-09-04T04:48:18.482Z,21.73
2022-09-04T04:50:53.638Z,22.05
2022-09-04T04:53:27.513Z,21.52
2022-09-04T04:55:58.620Z,21.13
2022-09-04T05:01:09.570Z,19.55
2022-09-04T05:03:46.060Z,21.58
2022-09-04T05:06:21.685Z,22.50
2022-09-04T05:08:56.938Z,19.83
2022-09-04T05:11:29.196Z,18.85
2022-09-04T05:14:03.055Z,20.17
2022-09-04T05:16:36.224Z,21.50
2022-09-04T05:19:11.366Z,23.83
2022-09-04T05:21:47.247Z,21.45
2022-09-04T05:24:20.113Z,22.90
2022-09-04T05:26:53.803Z,20.30
2022-09-04T05:29:32.438Z,19.42
2022-09-04T05:32:07.970Z,21.95
2022-09-04T05:34:50.663Z,19.20
2022-09-04T05:37:24.040Z,20.80
2022-09-04T05:39:59.607Z,18.10
2022-09-04T05:42:45.565Z,20.92
2022-09-04T05:45:21.422Z,20.80
2022-09-04T05:47:58.431Z,19.80
2022-09-04T05:50:50.132Z,19.15
2022-09-04T05:53:41.529Z,19.35
2022-09-04T05:56:38.076Z,20.45
2022-09-04T05:59:28.544Z,20.33
2022-09-04T06:02:12.703Z,19.85
2022-09-04T06:05:03.871Z,23.30
2022-09-04T06:07:36.282Z,23.73
2022-09-04T06:10:12.577Z,22.15
2022-09-04T06:13:04.757Z,18.83
2022-09-04T06:15:39.290Z,19.75
2022-09-04T06:18:18.266Z,19.88
2022-09-04T06:20:55.233Z,18.98
2022-09-04T06:23:43.615Z,21.83
2022-09-04T06:26:24.167Z,17.65
2022-09-04T06:29:11.462Z,19.05
2022-09-04T06:32:07.965Z,19.98
2022-09-04T06:34:45.955Z,19.52
2022-09-04T06:37:19.681Z,18.40
2022-09-04T06:39:59.069Z,16.48
2022-09-04T06:42:40.502Z,18.55
2022-09-04T06:45:20.792Z,18.13
2022-09-04T06:47:58.558Z,19.83
2022-09-04T06:50:31.755Z,18.67
2022-09-04T06:53:16.275Z,18.75
2022-09-04T06:55:49.552Z,18.63
2022-09-04T06:58:43.136Z,18.15
2022-09-04T07:01:13.955Z,18.65
2022-09-04T07:03:48.306Z,17.50
2022-09-04T07:06:20.770Z,17.75
2022-09-04T07:08:59.766Z,18.27
2022-09-04T07:11:36.301Z,18.90
2022-09-04T07:14:27.779Z,18.27
2022-09-04T07:17:02.740Z,21.98
2022-09-04T07:19:48.487Z,17.80
2022-09-04T07:22:34.009Z,18.77
2022-09-04T07:25:15.110Z,16.20
2022-09-04T07:30:36.353Z,16.40
2022-09-04T07:33:08.565Z,18.88
2022-09-04T07:35:39.007Z,20.33
2022-09-04T07:38:15.162Z,18.85
2022-09-04T07:40:46.683Z,21.17
2022-09-04T07:43:18.547Z,20.17
2022-09-04T07:45:53.943Z,18.80
2022-09-04T07:48:27.133Z,19.80
2022-09-04T07:51:03.749Z,16.95
2022-09-04T07:53:42.390Z,19.23
2022-09-04T07:56:15.943Z,18.52
2022-09-04T07:58:55.509Z,18.52
2022-09-04T08:01:51.006Z,19.75
2022-09-04T08:04:44.475Z,17.48
2022-09-04T08:07:17.204Z,19.08
2022-09-04T08:10:03.381Z,16.88
2022-09-04T08:13:02.680Z,17.60
2022-09-04T08:15:40.948Z,18.23
2022-09-04T08:18:24.210Z,16.27
2022-09-04T08:20:57.052Z,20.67
2022-09-04T08:23:38.754Z,19.45
2022-09-04T08:26:14.265Z,16.85
2022-09-04T08:28:57.237Z,20.75
2022-09-04T08:31:31.189Z,19.90
2022-09-04T08:34:27.393Z,19.65
2022-09-04T08:36:59.957Z,17.55
2022-09-04T08:39:33.328Z,18.98
2022-09-04T08:42:25.074Z,18.60
2022-09-04T08:45:13.893Z,19.20
2022-09-04T08:47:54.575Z,17.83
2022-09-04T08:50:51.716Z,20.90
2022-09-04T08:53:47.823Z,18.38
2022-09-04T08:56:21.661Z,20.83
2022-09-04T08:59:23.814Z,16.73
2022-09-04T09:02:10.790Z,17.35
2022-09-04T09:05:16.851Z,19.17
2022-09-04T09:08:10.950Z,19.85
2022-09-04T09:10:43.980Z,17.50
2022-09-04T09:13:49.534Z,17.17
2022-09-04T09:16:23.395Z,15.82
2022-09-04T09:19:23.552Z,16.33
2022-09-04T09:22:09.193Z,16.45
2022-09-04T09:25:01.262Z,17.42
2022-09-04T09:28:01.837Z,16.00
2022-09-04T09:30:31.649Z,18.00
2022-09-04T09:33:37.828Z,17.90
2022-09-04T09:36:27.300Z,15.63
2022-09-04T09:39:16.838Z,17.30
2022-09-04T09:42:07.617Z,16.02
2022-09-04T09:44:48.916Z,15.18
2022-09-04T09:47:40.791Z,14.07
2022-09-04T09:50:43.783Z,16.20
2022-09-04T09:53:43.785Z,15.18
2022-09-04T09:56:46.630Z,15.13
2022-09-04T10:00:02.394Z,15.13
2022-09-04T10:02:57.287Z,14.18
2022-09-04T10:05:51.704Z,16.08
2022-09-04T10:08:59.346Z,14.57
2022-09-04T10:11:45.850Z,13.98
2022-09-04T10:14:42.567Z,14.52
2022-09-04T10:17:59.791Z,14.40
2022-09-04T10:20:46.278Z,13.35
2022-09-04T10:23:35.258Z,13.40
2022-09-04T10:26:29.353Z,14.73
2022-09-04T10:29:33.466Z,17.15
2022-09-04T10:32:23.168Z,13.93
2022-09-04T10:35:21.306Z,14.82
2022-09-04T10:38:19.759Z,12.98
2022-09-04T10:41:02.128Z,13.60
2022-09-04T10:43:47.845Z,14.52
2022-09-04T10:46:22.952Z,12.98
2022-09-04T10:49:17.885Z,11.95
2022-09-04T10:52:12.521Z,12.77
2022-09-04T10:55:08.221Z,11.93
2022-09-04T10:58:15.249Z,11.85
2022-09-04T11:00:50.624Z,11.02
2022-09-04T11:03:43.327Z,11.95
2022-09-04T11:06:49.347Z,12.45
2022-09-04T11:09:28.500Z,12.57
2022-09-04T11:12:20.444Z,12.02
2022-09-04T11:15:06.200Z,10.65
2022-09-04T11:17:48.428Z,10.65
2022-09-04T11:20:34.181Z,12.90
2022-09-04T11:23:35.377Z,9.35
2022-09-04T11:28:47.494Z,11.73
2022-09-04T11:31:28.896Z,9.55
2022-09-04T11:34:17.207Z,10.10
2022-09-04T11:37:17.981Z,10.00
2022-09-04T11:40:01.399Z,10.18
2022-09-04T11:42:50.030Z,9.93
2022-09-04T11:45:46.499Z,9.65
2022-09-04T11:48:27.345Z,10.55
2022-09-04T11:51:40.582Z,10.13
2022-09-04T11:54:26.951Z,11.13
2022-09-04T11:57:16.218Z,9.65
2022-09-04T12:00:09.386Z,10.40
2022-09-04T12:03:08.515Z,10.50
2022-09-04T12:05:50.171Z,9.02
2022-09-04T12:08:35.830Z,8.13
2022-09-04T12:11:35.191Z,8.68
2022-09-04T12:14:12.212Z,8.30
2022-09-04T12:16:59.622Z,6.13
2022-09-04T12:19:42.393Z,6.57
2022-09-04T12:22:36.495Z,7.20
2022-09-04T12:25:26.338Z,6.38
2022-09-04T12:28:22.231Z,8.10
2022-09-04T12:30:59.205Z,5.57
2022-09-04T12:33:48.324Z,6.50
2022-09-04T12:36:59.416Z,4.43
2022-09-04T12:42:17.810Z,4.93
2022-09-04T12:44:52.695Z,4.35
2022-09-04T12:47:28.538Z,5.28
2022-09-04T12:50:17.407Z,4.03
2022-09-04T12:52:58.252Z,5.30
2022-09-04T12:58:13.131Z,4.47
2022-09-04T13:00:48.753Z,4.75
2022-09-04T13:03:23.656Z,4.53
2022-09-04T13:06:04.392Z,4.95
2022-09-04T13:08:41.215Z,3.20
2022-09-04T13:11:34.313Z,4.78
2022-09-04T13:14:15.330Z,2.72
2022-09-04T13:16:46.554Z,3.45
2022-09-04T13:19:20.456Z,4.50
2022-09-04T13:22:01.260Z,3.85
2022-09-04T13:27:15.975Z,3.72
2022-09-04T13:30:03.063Z,4.47
2022-09-04T13:33:15.777Z,2.85
2022-09-04T13:36:01.778Z,4.43
2022-09-04T13:39:13.389Z,3.47
2022-09-04T13:41:59.858Z,3.65
2022-09-04T13:44:40.926Z,2.65
2022-09-04T13:47:14.844Z,3.22
2022-09-04T13:49:48.118Z,4.43
2022-09-04T13:52:22.157Z,3.33
2022-09-04T13:54:56.743Z,2.95
2022-09-04T13:57:28.875Z,2.47
2022-09-04T13:59:59.323Z,3.80
2022-09-04T14:02:31.802Z,3.38
2022-09-04T14:05:04.731Z,2.50
2022-09-04T14:07:36.631Z,2.58
2022-09-04T14:10:11.650Z,2.47
2022-09-04T14:12:54.228Z,2.72
2022-09-04T14:15:52.268Z,2.53
2022-09-04T14:18:31.969Z,3.75
2022-09-04T14:21:03.347Z,3.80
2022-09-04T14:23:39.622Z,2.47
2022-09-04T14:26:13.515Z,2.60
2022-09-04T14:28:46.358Z,3.25
2022-09-04T14:31:18.450Z,3.05
2022-09-04T14:33:56.139Z,2.85
2022-09-04T14:36:35.481Z,2.80
2022-09-04T14:39:15.963Z,2.88
2022-09-04T14:41:57.171Z,4.18
2022-09-04T14:44:35.820Z,3.15
2022-09-04T14:47:09.800Z,2.53
2022-09-04T14:49:47.421Z,2.13
2022-09-04T14:52:19.776Z,2.75
2022-09-04T14:54:49.658Z,2.67
2022-09-04T14:57:21.276Z,2.33
2022-09-04T14:59:54.986Z,2.33
2022-09-04T15:02:27.362Z,2.63
2022-09-04T15:05:03.132Z,3.15
2022-09-04T15:07:54.460Z,1.90
2022-09-04T15:10:27.278Z,2.50
2022-09-04T15:13:02.425Z,2.50
2022-09-04T15:15:34.026Z,2.65
2022-09-04T15:18:15.994Z,2.60
2022-09-04T15:20:54.392Z,2.20
2022-09-04T15:23:27.479Z,3.05
2022-09-04T15:25:59.797Z,2.63
2022-09-04T15:28:31.849Z,2.63
2022-09-04T15:31:05.919Z,2.65
2022-09-04T15:33:35.841Z,2.58
2022-09-04T15:36:10.562Z,2.58
2022-09-04T15:38:40.109Z,3.75
2022-09-04T15:41:19.806Z,3.22
2022-09-04T15:43:50.584Z,3.22
2022-09-04T15:46:25.829Z,3.22
2022-09-04T15:48:58.659Z,3.50
2022-09-04T15:51:39.804Z,2.05
2022-09-04T15:54:22.885Z,3.50
2022-09-04T15:57:01.211Z,3.25
2022-09-04T15:59:36.419Z,3.58
2022-09-04T16:02:11.714Z,3.35
2022-09-04T16:04:43.719Z,3.08
2022-09-04T16:07:34.209Z,2.95
2022-09-04T16:10:06.901Z,3.42
2022-09-04T16:12:37.906Z,2.38
2022-09-04T16:15:08.821Z,3.78
2022-09-04T16:17:43.383Z,2.63
2022-09-04T16:20:15.119Z,3.15
2022-09-04T16:22:48.364Z,2.35
2022-09-04T16:25:27.260Z,2.58
2022-09-04T16:27:59.980Z,2.55
2022-09-04T16:30:36.486Z,3.30
2022-09-04T16:33:20.507Z,3.85
2022-09-04T16:35:56.803Z,2.63
2022-09-04T16:38:32.293Z,2.33
2022-09-04T16:41:04.480Z,2.30
2022-09-04T16:43:35.440Z,3.65
2022-09-04T16:46:11.201Z,2.78
2022-09-04T16:48:45.206Z,2.40
2022-09-04T16:51:39.401Z,4.22
2022-09-04T16:54:14.247Z,2.75
2022-09-04T16:56:45.582Z,2.33
2022-09-04T16:59:23.257Z,3.05
2022-09-04T17:01:55.744Z,3.13
2022-09-04T17:04:32.530Z,2.10
2022-09-04T17:07:05.390Z,3.67
2022-09-04T17:09:44.454Z,2.97
2022-09-04T17:12:22.139Z,3.50
2022-09-04T17:14:54.290Z,3.38
2022-09-04T17:17:30.859Z,2.38
2022-09-04T17:20:08.256Z,3.28
2022-09-04T17:27:20.653Z,2.85
2022-09-04T17:29:12.650Z,2.47
2022-09-04T17:29:18.364Z,2.40
2022-09-04T17:31:38.525Z,2.45
2022-09-04T17:40:44.299Z,2.63
2022-09-04T17:40:55.519Z,2.70
2022-09-04T17:40:55.961Z,4.03
2022-09-04T17:43:15.718Z,2.47
2022-09-04T17:45:54.018Z,3.28
2022-09-04T17:48:25.111Z,4.32
2022-09-04T17:50:55.906Z,3.90
2022-09-04T17:56:06.909Z,3.58
2022-09-04T17:58:41.098Z,4.15
2022-09-04T18:01:14.121Z,3.13
2022-09-04T18:04:19.901Z,3.05
2022-09-04T18:06:39.956Z,10.15
2022-09-04T18:09:12.068Z,4.45
2022-09-04T18:11:45.922Z,3.38
2022-09-04T18:14:36.267Z,3.75
2022-09-04T18:17:12.681Z,3.85
2022-09-04T18:19:45.833Z,4.57
2022-09-04T18:22:33.262Z,3.88
2022-09-04T18:25:17.226Z,3.22
2022-09-04T18:28:06.556Z,3.22
2022-09-04T18:33:14.052Z,2.90
2022-09-04T18:37:24.549Z,4.35
2022-09-04T18:37:24.932Z,3.85
2022-09-04T18:39:34.157Z,4.50
2022-09-04T18:50:24.132Z,4.60
2022-09-04T18:50:38.246Z,3.55
2022-09-04T18:50:53.073Z,2.95
2022-09-04T18:51:19.339Z,3.90
2022-09-04T18:53:53.146Z,3.97
2022-09-04T18:56:26.497Z,3.72
2022-09-04T18:59:07.229Z,3.97
2022-09-04T19:01:44.233Z,3.20
2022-09-04T19:04:43.362Z,3.05
2022-09-04T19:07:13.925Z,4.38
2022-09-04T19:10:05.133Z,3.55
2022-09-04T19:12:47.589Z,3.35
2022-09-04T19:15:36.335Z,4.53
2022-09-04T19:18:10.113Z,3.10
2022-09-04T19:20:48.240Z,2.53
2022-09-04T19:23:23.117Z,4.68
2022-09-04T19:25:55.134Z,5.07
2022-09-04T19:28:26.376Z,4.45
2022-09-04T19:30:57.214Z,4.53
2022-09-04T19:36:05.866Z,3.75
2022-09-04T19:45:57.609Z,5.25
2022-09-04T19:46:07.235Z,4.63
2022-09-04T19:47:28.678Z,4.90
2022-09-04T19:52:25.487Z,4.22
2022-09-04T19:55:44.304Z,5.13
2022-09-04T19:58:14.462Z,5.60
2022-09-04T20:00:45.574Z,8.38
2022-09-04T20:03:29.413Z,4.53
2022-09-04T20:06:09.278Z,3.33
2022-09-04T20:08:55.564Z,4.78
2022-09-04T20:11:34.859Z,3.22
2022-09-04T20:14:16.604Z,4.88
2022-09-04T20:16:55.283Z,3.35
2022-09-04T20:19:27.827Z,3.67
2022-09-04T20:22:00.158Z,4.97
2022-09-04T20:24:37.597Z,4.60
2022-09-04T20:27:10.340Z,4.47
2022-09-04T20:29:41.233Z,3.75
2022-09-04T20:34:45.971Z,4.13
2022-09-04T20:37:29.286Z,5.25
2022-09-04T20:40:07.620Z,5.80
2022-09-04T20:42:40.633Z,3.72
2022-09-04T20:50:06.857Z,2.97
2022-09-04T20:52:53.515Z,3.88
2022-09-04T20:52:54.890Z,4.38
2022-09-04T20:53:46.783Z,3.93
2022-09-04T20:57:31.506Z,6.32
2022-09-04T21:03:08.298Z,4.10
2022-09-04T21:03:23.726Z,3.83
2022-09-04T21:05:10.927Z,3.92
2022-09-04T21:07:42.547Z,4.72
2022-09-04T21:10:14.068Z,5.15
2022-09-04T21:12:48.141Z,4.90
2022-09-04T21:15:26.691Z,5.10
2022-09-04T21:18:26.475Z,5.95
2022-09-04T21:21:09.028Z,4.68
2022-09-04T21:24:12.234Z,4.72
2022-09-04T21:27:12.003Z,4.55
2022-09-04T21:29:59.401Z,5.60
2022-09-04T21:32:33.224Z,3.08
2022-09-04T21:35:09.921Z,5.50
2022-09-04T21:37:44.639Z,3.97
2022-09-04T21:40:51.091Z,4.57
2022-09-04T21:43:35.957Z,3.97
2022-09-04T21:46:28.961Z,4.10
2022-09-04T21:49:14.555Z,3.67
2022-09-04T21:52:10.307Z,3.88
2022-09-04T21:57:14.942Z,5.05
2022-09-04T22:02:35.359Z,5.57
2022-09-04T22:02:39.059Z,4.10
2022-09-04T22:04:02.368Z,3.40
2022-09-04T22:09:44.450Z,4.38
2022-09-04T22:13:30.993Z,3.30
2022-09-04T22:13:43.726Z,4.20
2022-09-04T22:15:29.215Z,4.93
2022-09-04T22:18:17.758Z,3.20
2022-09-04T22:21:03.003Z,3.38
2022-09-04T22:23:49.723Z,5.35
2022-09-04T22:26:35.226Z,4.70
2022-09-04T22:29:26.657Z,5.07
2022-09-04T22:32:24.455Z,4.65
2022-09-04T22:35:35.654Z,5.18
2022-09-04T22:38:30.437Z,3.75
2022-09-04T22:41:05.574Z,5.47
2022-09-04T22:43:47.205Z,4.68
2022-09-04T22:46:30.699Z,5.05
2022-09-04T22:49:23.422Z,4.13
2022-09-04T22:52:12.009Z,4.03
2022-09-04T22:54:51.087Z,4.38
2022-09-04T22:57:24.879Z,4.50
2022-09-04T23:00:12.659Z,6.07
2022-09-04T23:03:12.692Z,6.40
2022-09-04T23:06:32.522Z,4.90
2022-09-04T23:13:50.234Z,4.50
2022-09-04T23:15:07.897Z,4.35
2022-09-04T23:19:25.128Z,5.18
2022-09-04T23:26:35.689Z,4.60
2022-09-04T23:26:50.537Z,5.50
2022-09-04T23:27:37.873Z,5.18
2022-09-04T23:30:30.991Z,4.78
2022-09-04T23:33:30.638Z,4.32
2022-09-04T23:36:04.179Z,6.22
2022-09-04T23:38:52.585Z,5.75
2022-09-04T23:41:28.542Z,4.10
2022-09-04T23:44:28.310Z,4.65
2022-09-04T23:47:10.331Z,5.65
2022-09-04T23:50:02.082Z,5.68
2022-09-04T23:52:48.805Z,4.55
2022-09-04T23:55:47.547Z,4.28
2022-09-04T23:58:47.226Z,5.03
